ITY318 LIRF-LFPG
Flight info
| Callsign | ITY318 |
|---|---|
| Flight time | 1h 44m |
| Altitude | 34000 |
| Route | NEMBO7A NEMBO DCT GOVGO DCT AOSTA DCT ORSUD DCT MOLUS DCT UNKIR DCT GIVRI DCT TINIL TINIL9E |
| Aircraft | A320/M-SDE3FGHIRWY/LB1 |
Departure
| Time | 2026-05-01 10:59 |
|---|---|
| Airport | Rome–Fiumicino Leonardo da Vinci International Airport (LIRF) |
Arrival
| Time | 2026-05-01 12:44 |
|---|---|
| Airport | Charles de Gaulle International Airport (LFPG) |
| Time | Latitude | Longitude | Altitude | Speed | Heading |
|---|---|---|---|---|---|
| 2026-05-01 10:13 | 41.79682 | 12.25459 | 14 ft | 0 kts | 115° |
| 2026-05-01 10:42 | 41.79691 | 12.25431 | 14 ft | 4 kts | 117° |
| 2026-05-01 10:42 | 41.79707 | 12.25406 | 15 ft | 4 kts | 155° |
| 2026-05-01 10:42 | 41.79727 | 12.25385 | 15 ft | 4 kts | 107° |
| 2026-05-01 10:42 | 41.79730 | 12.25366 | 14 ft | 0 kts | 95° |
| 2026-05-01 10:43 | 41.79732 | 12.25392 | 15 ft | 4 kts | 78° |
| 2026-05-01 10:43 | 41.79747 | 12.25417 | 14 ft | 4 kts | 34° |
| 2026-05-01 10:43 | 41.79769 | 12.25431 | 16 ft | 4 kts | 25° |
| 2026-05-01 10:43 | 41.79787 | 12.25442 | 14 ft | 0 kts | 25° |
| 2026-05-01 10:46 | 41.79819 | 12.25462 | 14 ft | 10 kts | 25° |
| 2026-05-01 10:47 | 41.79911 | 12.25520 | 14 ft | 17 kts | 25° |
| 2026-05-01 10:47 | 41.80014 | 12.25564 | 16 ft | 12 kts | 336° |
| 2026-05-01 10:47 | 41.80053 | 12.25461 | 14 ft | 13 kts | 295° |
| 2026-05-01 10:47 | 41.80099 | 12.25330 | 14 ft | 18 kts | 295° |
| 2026-05-01 10:48 | 41.80158 | 12.25163 | 14 ft | 21 kts | 295° |
| 2026-05-01 10:48 | 41.80205 | 12.24979 | 14 ft | 21 kts | 275° |
| 2026-05-01 10:48 | 41.80184 | 12.24790 | 14 ft | 19 kts | 250° |
| 2026-05-01 10:48 | 41.80138 | 12.24622 | 15 ft | 18 kts | 250° |
| 2026-05-01 10:49 | 41.80098 | 12.24472 | 15 ft | 16 kts | 250° |
| 2026-05-01 10:49 | 41.80059 | 12.24334 | 13 ft | 17 kts | 249° |
| 2026-05-01 10:49 | 41.80013 | 12.24174 | 14 ft | 19 kts | 250° |
| 2026-05-01 10:49 | 41.79985 | 12.24011 | 14 ft | 17 kts | 266° |
| 2026-05-01 10:50 | 41.79945 | 12.23858 | 13 ft | 19 kts | 249° |
| 2026-05-01 10:50 | 41.79901 | 12.23709 | 14 ft | 14 kts | 244° |
| 2026-05-01 10:50 | 41.79813 | 12.23693 | 14 ft | 16 kts | 163° |
| 2026-05-01 10:50 | 41.79693 | 12.23743 | 16 ft | 17 kts | 161° |
| 2026-05-01 10:51 | 41.79577 | 12.23793 | 16 ft | 18 kts | 163° |
| 2026-05-01 10:51 | 41.79486 | 12.23831 | 14 ft | 7 kts | 162° |
| 2026-05-01 10:51 | 41.79462 | 12.23841 | 15 ft | 0 kts | 162° |
| 2026-05-01 10:55 | 41.79434 | 12.23853 | 15 ft | 7 kts | 162° |
| 2026-05-01 10:55 | 41.79362 | 12.23883 | 17 ft | 13 kts | 163° |
| 2026-05-01 10:55 | 41.79259 | 12.23925 | 17 ft | 17 kts | 162° |
| 2026-05-01 10:55 | 41.79133 | 12.23979 | 16 ft | 20 kts | 162° |
| 2026-05-01 10:56 | 41.79004 | 12.24033 | 18 ft | 19 kts | 163° |
| 2026-05-01 10:56 | 41.78922 | 12.24067 | 16 ft | 17 kts | 162° |
| 2026-05-01 10:56 | 41.78799 | 12.24118 | 15 ft | 20 kts | 162° |
| 2026-05-01 10:56 | 41.78660 | 12.24177 | 15 ft | 21 kts | 162° |
| 2026-05-01 10:57 | 41.78518 | 12.24237 | 16 ft | 21 kts | 162° |
| 2026-05-01 10:57 | 41.78386 | 12.24292 | 16 ft | 16 kts | 163° |
| 2026-05-01 10:57 | 41.78315 | 12.24235 | 14 ft | 13 kts | 253° |
| 2026-05-01 10:57 | 41.78289 | 12.24120 | 14 ft | 13 kts | 252° |
| 2026-05-01 10:58 | 41.78290 | 12.24001 | 18 ft | 12 kts | 324° |
| 2026-05-01 10:58 | 41.78312 | 12.23990 | 16 ft | 0 kts | 342° |
| 2026-05-01 10:58 | 41.78396 | 12.23955 | 15 ft | 44 kts | 343° |
| 2026-05-01 10:58 | 41.78926 | 12.23738 | 18 ft | 110 kts | 342° |
| 2026-05-01 10:59 | 41.79850 | 12.23355 | 18 ft | 161 kts | 342° |
| 2026-05-01 10:59 | 41.80994 | 12.22846 | 477 ft | 169 kts | 343° |
| 2026-05-01 10:59 | 41.82126 | 12.22292 | 1306 ft | 169 kts | 336° |
| 2026-05-01 10:59 | 41.83085 | 12.21275 | 1756 ft | 186 kts | 305° |
| 2026-05-01 11:00 | 41.83528 | 12.19531 | 2160 ft | 211 kts | 272° |
| 2026-05-01 11:00 | 41.83163 | 12.17562 | 2753 ft | 223 kts | 239° |
| 2026-05-01 11:00 | 41.82262 | 12.15806 | 3523 ft | 226 kts | 236° |
| 2026-05-01 11:00 | 41.81352 | 12.14056 | 4170 ft | 234 kts | 238° |
| 2026-05-01 11:01 | 41.80718 | 12.11885 | 4499 ft | 257 kts | 257° |
| 2026-05-01 11:01 | 41.80262 | 12.09494 | 5048 ft | 272 kts | 257° |
| 2026-05-01 11:01 | 41.79789 | 12.07006 | 5833 ft | 277 kts | 257° |
| 2026-05-01 11:01 | 41.79361 | 12.04441 | 6674 ft | 280 kts | 262° |
| 2026-05-01 11:02 | 41.79108 | 12.01845 | 7473 ft | 282 kts | 266° |
| 2026-05-01 11:02 | 41.79056 | 11.99223 | 8285 ft | 282 kts | 279° |
| 2026-05-01 11:02 | 41.79634 | 11.96745 | 9179 ft | 280 kts | 300° |
| 2026-05-01 11:02 | 41.80271 | 11.95197 | 9744 ft | 280 kts | 301° |
| 2026-05-01 11:03 | 41.81561 | 11.92141 | 10708 ft | 288 kts | 301° |
| 2026-05-01 11:03 | 41.82238 | 11.90553 | 10835 ft | 303 kts | 301° |
| 2026-05-01 11:03 | 41.83322 | 11.88016 | 11079 ft | 323 kts | 301° |
| 2026-05-01 11:03 | 41.84464 | 11.85337 | 11670 ft | 329 kts | 301° |
| 2026-05-01 11:04 | 41.85598 | 11.82656 | 12390 ft | 332 kts | 301° |
| 2026-05-01 11:04 | 41.86669 | 11.80108 | 13070 ft | 334 kts | 301° |
| 2026-05-01 11:04 | 41.87797 | 11.77421 | 13787 ft | 336 kts | 301° |
| 2026-05-01 11:04 | 41.88946 | 11.74684 | 14456 ft | 338 kts | 301° |
| 2026-05-01 11:05 | 41.90104 | 11.71926 | 15079 ft | 340 kts | 301° |
| 2026-05-01 11:05 | 41.91272 | 11.69151 | 15691 ft | 342 kts | 300° |
| 2026-05-01 11:05 | 41.92445 | 11.66361 | 16295 ft | 345 kts | 300° |
| 2026-05-01 11:05 | 41.93642 | 11.63515 | 16911 ft | 347 kts | 300° |
| 2026-05-01 11:06 | 41.94833 | 11.60676 | 17512 ft | 350 kts | 300° |
| 2026-05-01 11:06 | 41.96033 | 11.57816 | 18111 ft | 352 kts | 300° |
| 2026-05-01 11:06 | 41.97239 | 11.54937 | 18679 ft | 355 kts | 300° |
| 2026-05-01 11:07 | 41.99680 | 11.49077 | 19731 ft | 360 kts | 300° |
| 2026-05-01 11:07 | 42.00905 | 11.46129 | 20256 ft | 362 kts | 300° |
| 2026-05-01 11:07 | 42.02133 | 11.43177 | 20794 ft | 363 kts | 300° |
| 2026-05-01 11:07 | 42.03374 | 11.40200 | 21325 ft | 366 kts | 300° |
| 2026-05-01 11:08 | 42.04636 | 11.37174 | 21854 ft | 368 kts | 300° |
| 2026-05-01 11:08 | 42.05911 | 11.34113 | 22373 ft | 370 kts | 300° |
| 2026-05-01 11:08 | 42.08453 | 11.27985 | 23379 ft | 375 kts | 300° |
| 2026-05-01 11:09 | 42.09720 | 11.24918 | 23833 ft | 377 kts | 300° |
| 2026-05-01 11:09 | 42.11001 | 11.21812 | 24237 ft | 379 kts | 300° |
| 2026-05-01 11:09 | 42.12318 | 11.18615 | 24638 ft | 381 kts | 300° |
| 2026-05-01 11:10 | 42.14917 | 11.12311 | 25384 ft | 384 kts | 300° |
| 2026-05-01 11:10 | 42.16216 | 11.09156 | 25753 ft | 386 kts | 300° |
| 2026-05-01 11:10 | 42.17523 | 11.05980 | 26108 ft | 388 kts | 300° |
| 2026-05-01 11:10 | 42.18849 | 11.02756 | 26459 ft | 389 kts | 300° |
| 2026-05-01 11:11 | 42.20184 | 10.99512 | 26806 ft | 391 kts | 300° |
| 2026-05-01 11:11 | 42.21508 | 10.96293 | 27157 ft | 393 kts | 300° |
| 2026-05-01 11:11 | 42.22831 | 10.93066 | 27489 ft | 394 kts | 300° |
| 2026-05-01 11:11 | 42.24179 | 10.89766 | 27820 ft | 396 kts | 300° |
| 2026-05-01 11:12 | 42.25507 | 10.86511 | 28150 ft | 398 kts | 300° |
| 2026-05-01 11:12 | 42.26929 | 10.83182 | 28461 ft | 399 kts | 304° |
| 2026-05-01 11:12 | 42.28670 | 10.80255 | 28760 ft | 401 kts | 314° |
| 2026-05-01 11:12 | 42.30807 | 10.77745 | 29065 ft | 403 kts | 323° |
| 2026-05-01 11:13 | 42.33214 | 10.75798 | 29353 ft | 407 kts | 332° |
| 2026-05-01 11:13 | 42.35927 | 10.74339 | 29643 ft | 410 kts | 337° |
| 2026-05-01 11:13 | 42.38621 | 10.73013 | 29913 ft | 412 kts | 337° |
| 2026-05-01 11:13 | 42.41331 | 10.71680 | 30189 ft | 413 kts | 337° |
| 2026-05-01 11:14 | 42.44069 | 10.70332 | 30431 ft | 415 kts | 337° |
| 2026-05-01 11:14 | 42.45893 | 10.69431 | 30573 ft | 416 kts | 337° |
| 2026-05-01 11:14 | 42.48608 | 10.68084 | 30788 ft | 417 kts | 337° |
| 2026-05-01 11:14 | 42.51379 | 10.66703 | 31010 ft | 418 kts | 337° |
| 2026-05-01 11:15 | 42.54214 | 10.65293 | 31320 ft | 416 kts | 337° |
| 2026-05-01 11:15 | 42.56968 | 10.63927 | 31625 ft | 415 kts | 337° |
| 2026-05-01 11:15 | 42.59673 | 10.62587 | 31926 ft | 414 kts | 337° |
| 2026-05-01 11:15 | 42.62368 | 10.61249 | 32220 ft | 413 kts | 337° |
| 2026-05-01 11:16 | 42.65103 | 10.59888 | 32510 ft | 412 kts | 337° |
| 2026-05-01 11:16 | 42.67867 | 10.58506 | 32797 ft | 411 kts | 336° |
| 2026-05-01 11:16 | 42.70569 | 10.57155 | 33077 ft | 410 kts | 336° |
| 2026-05-01 11:16 | 42.73263 | 10.55808 | 33355 ft | 410 kts | 337° |
| 2026-05-01 11:17 | 42.75968 | 10.54453 | 33633 ft | 409 kts | 336° |
| 2026-05-01 11:17 | 42.78637 | 10.53114 | 33904 ft | 408 kts | 336° |
| 2026-05-01 11:17 | 42.81301 | 10.51780 | 34180 ft | 408 kts | 336° |
| 2026-05-01 11:17 | 42.83970 | 10.50444 | 34292 ft | 406 kts | 337° |
| 2026-05-01 11:18 | 42.89220 | 10.47810 | 34311 ft | 401 kts | 336° |
| 2026-05-01 11:18 | 42.94488 | 10.45157 | 34307 ft | 400 kts | 337° |
| 2026-05-01 11:19 | 42.99705 | 10.42525 | 34314 ft | 400 kts | 337° |
| 2026-05-01 11:19 | 43.04971 | 10.39863 | 34312 ft | 401 kts | 337° |
| 2026-05-01 11:20 | 43.10373 | 10.37127 | 34308 ft | 401 kts | 337° |
| 2026-05-01 11:20 | 43.15607 | 10.34464 | 34313 ft | 400 kts | 335° |
| 2026-05-01 11:21 | 43.20347 | 10.30516 | 34310 ft | 397 kts | 321° |
| 2026-05-01 11:21 | 43.24727 | 10.25779 | 34306 ft | 398 kts | 321° |
| 2026-05-01 11:22 | 43.29078 | 10.21080 | 34303 ft | 398 kts | 321° |
| 2026-05-01 11:22 | 43.32727 | 10.17140 | 34303 ft | 399 kts | 321° |
| 2026-05-01 11:23 | 43.37121 | 10.12394 | 34310 ft | 400 kts | 321° |
| 2026-05-01 11:23 | 43.41492 | 10.07658 | 34312 ft | 400 kts | 321° |
| 2026-05-01 11:24 | 43.45886 | 10.02875 | 34314 ft | 401 kts | 321° |
| 2026-05-01 11:25 | 43.52554 | 9.95589 | 34317 ft | 401 kts | 321° |
| 2026-05-01 11:25 | 43.59308 | 9.88213 | 34317 ft | 402 kts | 321° |
| 2026-05-01 11:26 | 43.65882 | 9.81017 | 34320 ft | 403 kts | 321° |
| 2026-05-01 11:27 | 43.70267 | 9.76201 | 34313 ft | 403 kts | 321° |
| 2026-05-01 11:27 | 43.74661 | 9.71354 | 34322 ft | 404 kts | 321° |
| 2026-05-01 11:28 | 43.79087 | 9.66460 | 34326 ft | 405 kts | 321° |
| 2026-05-01 11:28 | 43.83488 | 9.61599 | 34322 ft | 405 kts | 321° |
| 2026-05-01 11:29 | 43.90109 | 9.54271 | 34321 ft | 406 kts | 321° |
| 2026-05-01 11:30 | 43.96784 | 9.46875 | 34317 ft | 406 kts | 321° |
| 2026-05-01 11:30 | 44.01198 | 9.41958 | 34321 ft | 407 kts | 321° |
| 2026-05-01 11:31 | 44.05603 | 9.37024 | 34323 ft | 407 kts | 321° |
| 2026-05-01 11:31 | 44.10014 | 9.32081 | 34318 ft | 407 kts | 321° |
| 2026-05-01 11:32 | 44.14433 | 9.27137 | 34312 ft | 408 kts | 321° |
| 2026-05-01 11:32 | 44.18885 | 9.22137 | 34309 ft | 408 kts | 321° |
| 2026-05-01 11:33 | 44.23302 | 9.17170 | 34316 ft | 409 kts | 321° |
| 2026-05-01 11:33 | 44.27725 | 9.12187 | 34313 ft | 409 kts | 321° |
| 2026-05-01 11:34 | 44.32148 | 9.07186 | 34310 ft | 409 kts | 321° |
| 2026-05-01 11:34 | 44.36582 | 9.02174 | 34308 ft | 410 kts | 321° |
| 2026-05-01 11:35 | 44.40290 | 8.97969 | 34303 ft | 410 kts | 321° |
| 2026-05-01 11:35 | 44.44743 | 8.92911 | 34303 ft | 410 kts | 321° |
| 2026-05-01 11:36 | 44.49187 | 8.87854 | 34302 ft | 411 kts | 321° |
| 2026-05-01 11:36 | 44.53623 | 8.82793 | 34308 ft | 411 kts | 321° |
| 2026-05-01 11:37 | 44.58060 | 8.77713 | 34314 ft | 412 kts | 321° |
| 2026-05-01 11:37 | 44.62508 | 8.72625 | 34326 ft | 413 kts | 321° |
| 2026-05-01 11:38 | 44.66953 | 8.67526 | 34335 ft | 413 kts | 321° |
| 2026-05-01 11:38 | 44.71483 | 8.62322 | 34366 ft | 422 kts | 322° |
| 2026-05-01 11:39 | 44.76023 | 8.57094 | 34367 ft | 423 kts | 322° |
| 2026-05-01 11:39 | 44.80576 | 8.51826 | 34367 ft | 423 kts | 322° |
| 2026-05-01 11:40 | 44.85132 | 8.46549 | 34363 ft | 424 kts | 322° |
| 2026-05-01 11:40 | 44.89720 | 8.41226 | 34371 ft | 424 kts | 321° |
| 2026-05-01 11:41 | 44.94305 | 8.35907 | 34369 ft | 425 kts | 321° |
| 2026-05-01 11:41 | 44.98878 | 8.30581 | 34368 ft | 426 kts | 321° |
| 2026-05-01 11:42 | 45.03441 | 8.25254 | 34365 ft | 426 kts | 321° |
| 2026-05-01 11:42 | 45.08018 | 8.19893 | 34370 ft | 427 kts | 321° |
| 2026-05-01 11:43 | 45.12611 | 8.14498 | 34365 ft | 427 kts | 321° |
| 2026-05-01 11:43 | 45.17183 | 8.09133 | 34377 ft | 427 kts | 321° |
| 2026-05-01 11:44 | 45.24068 | 8.01048 | 34379 ft | 428 kts | 321° |
| 2026-05-01 11:44 | 45.28674 | 7.95607 | 34378 ft | 429 kts | 321° |
| 2026-05-01 11:45 | 45.33260 | 7.90178 | 34378 ft | 429 kts | 321° |
| 2026-05-01 11:45 | 45.37856 | 7.84720 | 34379 ft | 430 kts | 320° |
| 2026-05-01 11:46 | 45.42440 | 7.79266 | 34378 ft | 430 kts | 320° |
| 2026-05-01 11:46 | 45.47051 | 7.73777 | 34372 ft | 429 kts | 320° |
| 2026-05-01 11:47 | 45.51636 | 7.68295 | 34359 ft | 430 kts | 320° |
| 2026-05-01 11:47 | 45.56275 | 7.62745 | 34331 ft | 430 kts | 320° |
| 2026-05-01 11:48 | 45.60937 | 7.57155 | 34321 ft | 430 kts | 320° |
| 2026-05-01 11:48 | 45.65609 | 7.51536 | 34309 ft | 431 kts | 320° |
| 2026-05-01 11:49 | 45.69474 | 7.46880 | 34307 ft | 432 kts | 320° |
| 2026-05-01 11:49 | 45.74154 | 7.41238 | 34305 ft | 433 kts | 319° |
| 2026-05-01 11:50 | 45.78777 | 7.35645 | 34305 ft | 434 kts | 319° |
| 2026-05-01 11:50 | 45.83559 | 7.30319 | 34305 ft | 436 kts | 324° |
| 2026-05-01 11:51 | 45.88576 | 7.25349 | 34302 ft | 436 kts | 325° |
| 2026-05-01 11:51 | 45.93595 | 7.20407 | 34297 ft | 437 kts | 324° |
| 2026-05-01 11:52 | 45.98604 | 7.15321 | 34273 ft | 438 kts | 324° |
| 2026-05-01 11:52 | 46.03576 | 7.10200 | 34268 ft | 439 kts | 324° |
| 2026-05-01 11:53 | 46.08549 | 7.05082 | 34270 ft | 440 kts | 323° |
| 2026-05-01 11:53 | 46.13531 | 6.99968 | 34268 ft | 440 kts | 323° |
| 2026-05-01 11:54 | 46.18544 | 6.94802 | 34263 ft | 440 kts | 323° |
| 2026-05-01 11:54 | 46.23535 | 6.89640 | 34273 ft | 441 kts | 323° |
| 2026-05-01 11:55 | 46.28530 | 6.84472 | 34277 ft | 442 kts | 323° |
| 2026-05-01 11:55 | 46.33530 | 6.79277 | 34277 ft | 442 kts | 323° |
| 2026-05-01 11:56 | 46.38520 | 6.74068 | 34279 ft | 443 kts | 323° |
| 2026-05-01 11:56 | 46.43385 | 6.68534 | 34283 ft | 442 kts | 313° |
| 2026-05-01 11:57 | 46.46992 | 6.61399 | 34288 ft | 440 kts | 298° |
| 2026-05-01 11:57 | 46.50035 | 6.53673 | 34286 ft | 440 kts | 298° |
| 2026-05-01 11:58 | 46.53103 | 6.45920 | 34285 ft | 441 kts | 298° |
| 2026-05-01 11:59 | 46.57703 | 6.34240 | 34284 ft | 442 kts | 298° |
| 2026-05-01 11:59 | 46.60736 | 6.26476 | 34278 ft | 442 kts | 298° |
| 2026-05-01 12:00 | 46.65342 | 6.14663 | 34274 ft | 443 kts | 298° |
| 2026-05-01 12:01 | 46.69921 | 6.02901 | 34266 ft | 444 kts | 297° |
| 2026-05-01 12:01 | 46.72969 | 5.95024 | 34262 ft | 444 kts | 297° |
| 2026-05-01 12:02 | 46.76005 | 5.87161 | 34263 ft | 445 kts | 297° |
| 2026-05-01 12:02 | 46.79055 | 5.79236 | 34260 ft | 446 kts | 299° |
| 2026-05-01 12:03 | 46.83026 | 5.72266 | 34249 ft | 450 kts | 318° |
| 2026-05-01 12:03 | 46.87362 | 5.68038 | 34259 ft | 453 kts | 330° |
| 2026-05-01 12:04 | 46.92929 | 5.63594 | 34249 ft | 454 kts | 330° |
| 2026-05-01 12:04 | 46.98495 | 5.59105 | 34248 ft | 454 kts | 330° |
| 2026-05-01 12:05 | 47.04031 | 5.54646 | 34255 ft | 455 kts | 330° |
| 2026-05-01 12:05 | 47.12395 | 5.47898 | 34253 ft | 456 kts | 330° |
| 2026-05-01 12:06 | 47.17996 | 5.43354 | 34228 ft | 456 kts | 330° |
| 2026-05-01 12:06 | 47.23548 | 5.38824 | 34232 ft | 457 kts | 330° |
| 2026-05-01 12:07 | 47.29294 | 5.34142 | 34245 ft | 458 kts | 330° |
| 2026-05-01 12:07 | 47.34933 | 5.29546 | 34097 ft | 461 kts | 330° |
| 2026-05-01 12:08 | 47.37740 | 5.27248 | 33829 ft | 459 kts | 330° |
| 2026-05-01 12:08 | 47.40554 | 5.24942 | 33543 ft | 458 kts | 330° |
| 2026-05-01 12:08 | 47.43337 | 5.22662 | 33284 ft | 456 kts | 330° |
| 2026-05-01 12:08 | 47.46094 | 5.20402 | 33015 ft | 454 kts | 330° |
| 2026-05-01 12:09 | 47.48864 | 5.18129 | 32748 ft | 453 kts | 330° |
| 2026-05-01 12:09 | 47.51646 | 5.15841 | 32478 ft | 451 kts | 330° |
| 2026-05-01 12:09 | 47.54377 | 5.13588 | 32211 ft | 449 kts | 330° |
| 2026-05-01 12:09 | 47.57095 | 5.11345 | 31879 ft | 446 kts | 330° |
| 2026-05-01 12:10 | 47.59821 | 5.08687 | 31324 ft | 442 kts | 320° |
| 2026-05-01 12:10 | 47.64517 | 5.02798 | 30271 ft | 437 kts | 319° |
| 2026-05-01 12:10 | 47.66839 | 4.99886 | 29696 ft | 434 kts | 319° |
| 2026-05-01 12:11 | 47.71448 | 4.94113 | 28704 ft | 427 kts | 319° |
| 2026-05-01 12:11 | 47.73694 | 4.91291 | 28214 ft | 423 kts | 319° |
| 2026-05-01 12:11 | 47.75936 | 4.88465 | 27943 ft | 421 kts | 319° |
| 2026-05-01 12:12 | 47.78193 | 4.85610 | 27657 ft | 420 kts | 319° |
| 2026-05-01 12:12 | 47.80416 | 4.82792 | 27378 ft | 419 kts | 319° |
| 2026-05-01 12:12 | 47.82623 | 4.79987 | 27096 ft | 417 kts | 319° |
| 2026-05-01 12:12 | 47.84827 | 4.77180 | 26822 ft | 416 kts | 319° |
| 2026-05-01 12:13 | 47.87018 | 4.74382 | 26540 ft | 414 kts | 319° |
| 2026-05-01 12:13 | 47.88502 | 4.72487 | 26343 ft | 413 kts | 319° |
| 2026-05-01 12:13 | 47.90674 | 4.69712 | 26077 ft | 412 kts | 319° |
| 2026-05-01 12:13 | 47.92844 | 4.66939 | 25803 ft | 410 kts | 319° |
| 2026-05-01 12:14 | 47.95008 | 4.64174 | 25530 ft | 409 kts | 319° |
| 2026-05-01 12:14 | 47.97162 | 4.61422 | 25245 ft | 407 kts | 319° |
| 2026-05-01 12:14 | 47.99314 | 4.58669 | 24973 ft | 406 kts | 319° |
| 2026-05-01 12:14 | 48.01454 | 4.55927 | 24710 ft | 404 kts | 319° |
| 2026-05-01 12:15 | 48.03584 | 4.53193 | 24439 ft | 403 kts | 319° |
| 2026-05-01 12:15 | 48.05729 | 4.50434 | 24167 ft | 402 kts | 319° |
| 2026-05-01 12:15 | 48.07840 | 4.47713 | 23900 ft | 400 kts | 319° |
| 2026-05-01 12:15 | 48.09974 | 4.44958 | 23591 ft | 398 kts | 319° |
| 2026-05-01 12:16 | 48.12069 | 4.42256 | 23330 ft | 397 kts | 319° |
| 2026-05-01 12:16 | 48.14181 | 4.39532 | 23067 ft | 395 kts | 319° |
| 2026-05-01 12:16 | 48.16263 | 4.36845 | 22799 ft | 394 kts | 318° |
| 2026-05-01 12:16 | 48.18333 | 4.34166 | 22531 ft | 392 kts | 318° |
| 2026-05-01 12:17 | 48.20413 | 4.31469 | 22271 ft | 391 kts | 318° |
| 2026-05-01 12:17 | 48.22462 | 4.28811 | 22016 ft | 389 kts | 318° |
| 2026-05-01 12:17 | 48.24491 | 4.26175 | 21754 ft | 388 kts | 318° |
| 2026-05-01 12:17 | 48.25270 | 4.25161 | 21651 ft | 387 kts | 317° |
| 2026-05-01 12:18 | 48.27231 | 4.22097 | 21370 ft | 384 kts | 308° |
| 2026-05-01 12:18 | 48.29958 | 4.17108 | 20971 ft | 382 kts | 308° |
| 2026-05-01 12:18 | 48.31677 | 4.13974 | 20707 ft | 380 kts | 308° |
| 2026-05-01 12:18 | 48.33420 | 4.10797 | 20449 ft | 378 kts | 308° |
| 2026-05-01 12:19 | 48.36648 | 4.04902 | 19854 ft | 375 kts | 308° |
| 2026-05-01 12:19 | 48.38303 | 4.01878 | 19512 ft | 373 kts | 308° |
| 2026-05-01 12:19 | 48.39960 | 3.98849 | 19162 ft | 370 kts | 307° |
| 2026-05-01 12:20 | 48.40492 | 3.97875 | 19042 ft | 370 kts | 307° |
| 2026-05-01 12:20 | 48.44806 | 3.89959 | 18129 ft | 364 kts | 307° |
| 2026-05-01 12:20 | 48.46476 | 3.86880 | 17783 ft | 363 kts | 307° |
| 2026-05-01 12:21 | 48.47559 | 3.84881 | 17554 ft | 361 kts | 307° |
| 2026-05-01 12:21 | 48.49170 | 3.81908 | 17208 ft | 360 kts | 307° |
| 2026-05-01 12:21 | 48.50767 | 3.78957 | 16880 ft | 358 kts | 308° |
| 2026-05-01 12:21 | 48.52345 | 3.76045 | 16542 ft | 356 kts | 308° |
| 2026-05-01 12:22 | 48.53908 | 3.73109 | 16222 ft | 354 kts | 304° |
| 2026-05-01 12:22 | 48.55239 | 3.70056 | 15966 ft | 353 kts | 301° |
| 2026-05-01 12:22 | 48.56583 | 3.66924 | 15718 ft | 352 kts | 301° |
| 2026-05-01 12:22 | 48.57930 | 3.63790 | 15471 ft | 350 kts | 301° |
| 2026-05-01 12:23 | 48.59253 | 3.60715 | 15227 ft | 349 kts | 301° |
| 2026-05-01 12:23 | 48.60579 | 3.57642 | 14987 ft | 348 kts | 301° |
| 2026-05-01 12:23 | 48.61918 | 3.54534 | 14737 ft | 347 kts | 301° |
| 2026-05-01 12:23 | 48.63216 | 3.51518 | 14496 ft | 346 kts | 301° |
| 2026-05-01 12:24 | 48.64531 | 3.48450 | 14262 ft | 345 kts | 301° |
| 2026-05-01 12:24 | 48.65830 | 3.45409 | 14020 ft | 344 kts | 301° |
| 2026-05-01 12:24 | 48.67147 | 3.42317 | 13743 ft | 343 kts | 301° |
| 2026-05-01 12:24 | 48.68464 | 3.39225 | 13482 ft | 340 kts | 301° |
| 2026-05-01 12:25 | 48.69768 | 3.36164 | 13228 ft | 339 kts | 301° |
| 2026-05-01 12:25 | 48.72300 | 3.30216 | 12699 ft | 335 kts | 301° |
| 2026-05-01 12:25 | 48.73533 | 3.27311 | 12450 ft | 333 kts | 301° |
| 2026-05-01 12:26 | 48.74781 | 3.24367 | 12194 ft | 331 kts | 301° |
| 2026-05-01 12:26 | 48.77270 | 3.18482 | 11688 ft | 328 kts | 301° |
| 2026-05-01 12:26 | 48.78490 | 3.15592 | 11435 ft | 326 kts | 301° |
| 2026-05-01 12:27 | 48.79713 | 3.12694 | 11183 ft | 324 kts | 301° |
| 2026-05-01 12:27 | 48.82207 | 3.06775 | 10688 ft | 321 kts | 301° |
| 2026-05-01 12:28 | 48.84611 | 3.01253 | 10211 ft | 310 kts | 307° |
| 2026-05-01 12:28 | 48.86047 | 2.98779 | 10064 ft | 301 kts | 312° |
| 2026-05-01 12:28 | 48.88825 | 2.94186 | 9791 ft | 288 kts | 311° |
| 2026-05-01 12:29 | 48.90170 | 2.91947 | 9651 ft | 287 kts | 311° |
| 2026-05-01 12:29 | 48.91101 | 2.90396 | 9566 ft | 286 kts | 310° |
| 2026-05-01 12:29 | 48.93082 | 2.85183 | 9305 ft | 281 kts | 284° |
| 2026-05-01 12:30 | 48.93428 | 2.79269 | 9031 ft | 276 kts | 263° |
| 2026-05-01 12:30 | 48.93273 | 2.76403 | 8907 ft | 276 kts | 263° |
| 2026-05-01 12:31 | 48.92625 | 2.64169 | 8360 ft | 273 kts | 263° |
| 2026-05-01 12:31 | 48.92470 | 2.61282 | 8233 ft | 273 kts | 262° |
| 2026-05-01 12:32 | 48.92313 | 2.58376 | 8105 ft | 272 kts | 263° |
| 2026-05-01 12:32 | 48.92000 | 2.52616 | 7853 ft | 271 kts | 263° |
| 2026-05-01 12:32 | 48.91843 | 2.49741 | 7727 ft | 270 kts | 263° |
| 2026-05-01 12:33 | 48.91737 | 2.47807 | 7643 ft | 270 kts | 263° |
| 2026-05-01 12:33 | 48.91580 | 2.44935 | 7519 ft | 269 kts | 263° |
| 2026-05-01 12:33 | 48.91424 | 2.42103 | 7390 ft | 268 kts | 263° |
| 2026-05-01 12:33 | 48.91261 | 2.39198 | 7276 ft | 268 kts | 263° |
| 2026-05-01 12:34 | 48.91103 | 2.36389 | 7139 ft | 267 kts | 263° |
| 2026-05-01 12:34 | 48.90944 | 2.33593 | 7028 ft | 266 kts | 263° |
| 2026-05-01 12:34 | 48.90785 | 2.30781 | 6911 ft | 266 kts | 263° |
| 2026-05-01 12:34 | 48.90628 | 2.27987 | 6785 ft | 265 kts | 263° |
| 2026-05-01 12:35 | 48.90469 | 2.25163 | 6667 ft | 264 kts | 263° |
| 2026-05-01 12:35 | 48.90311 | 2.22414 | 6361 ft | 264 kts | 262° |
| 2026-05-01 12:35 | 48.90147 | 2.19618 | 5946 ft | 263 kts | 262° |
| 2026-05-01 12:35 | 48.89983 | 2.16838 | 5624 ft | 260 kts | 263° |
| 2026-05-01 12:36 | 48.89823 | 2.14111 | 5523 ft | 256 kts | 262° |
| 2026-05-01 12:36 | 48.89767 | 2.11441 | 5420 ft | 245 kts | 277° |
| 2026-05-01 12:36 | 48.90395 | 2.09036 | 5380 ft | 244 kts | 305° |
| 2026-05-01 12:36 | 48.91677 | 2.07356 | 5315 ft | 246 kts | 333° |
| 2026-05-01 12:37 | 48.93356 | 2.06768 | 5258 ft | 248 kts | 2° |
| 2026-05-01 12:37 | 48.95006 | 2.07445 | 5192 ft | 247 kts | 32° |
| 2026-05-01 12:37 | 48.96238 | 2.09194 | 5077 ft | 242 kts | 61° |
| 2026-05-01 12:37 | 48.96778 | 2.11575 | 5011 ft | 238 kts | 87° |
| 2026-05-01 12:38 | 48.96921 | 2.14132 | 5012 ft | 240 kts | 87° |
| 2026-05-01 12:38 | 48.97068 | 2.16655 | 5015 ft | 240 kts | 87° |
| 2026-05-01 12:38 | 48.97215 | 2.19186 | 4992 ft | 240 kts | 87° |
| 2026-05-01 12:38 | 48.97360 | 2.21715 | 4763 ft | 237 kts | 87° |
| 2026-05-01 12:39 | 48.97501 | 2.24202 | 4471 ft | 235 kts | 87° |
| 2026-05-01 12:39 | 48.97642 | 2.26699 | 4156 ft | 233 kts | 87° |
| 2026-05-01 12:39 | 48.97780 | 2.29145 | 3839 ft | 229 kts | 87° |
| 2026-05-01 12:39 | 48.97914 | 2.31513 | 3552 ft | 221 kts | 87° |
| 2026-05-01 12:40 | 48.98044 | 2.33829 | 3260 ft | 213 kts | 87° |
| 2026-05-01 12:40 | 48.98167 | 2.36032 | 3015 ft | 204 kts | 87° |
| 2026-05-01 12:40 | 48.98285 | 2.38172 | 2717 ft | 200 kts | 87° |
| 2026-05-01 12:40 | 48.98399 | 2.40213 | 2459 ft | 185 kts | 88° |
| 2026-05-01 12:41 | 48.98509 | 2.42213 | 2194 ft | 175 kts | 86° |
| 2026-05-01 12:41 | 48.98610 | 2.44037 | 1951 ft | 167 kts | 87° |
| 2026-05-01 12:41 | 48.98704 | 2.45753 | 1778 ft | 154 kts | 87° |
| 2026-05-01 12:41 | 48.98792 | 2.47361 | 1575 ft | 148 kts | 87° |
| 2026-05-01 12:42 | 48.98877 | 2.48908 | 1380 ft | 145 kts | 88° |
| 2026-05-01 12:42 | 48.98956 | 2.50431 | 1185 ft | 144 kts | 88° |
| 2026-05-01 12:42 | 48.99035 | 2.51947 | 1017 ft | 143 kts | 89° |
| 2026-05-01 12:42 | 48.99121 | 2.53445 | 800 ft | 141 kts | 87° |
| 2026-05-01 12:43 | 48.99203 | 2.54915 | 615 ft | 138 kts | 85° |
| 2026-05-01 12:43 | 48.99285 | 2.56376 | 429 ft | 139 kts | 87° |
| 2026-05-01 12:43 | 48.99354 | 2.57790 | 336 ft | 122 kts | 86° |
| 2026-05-01 12:43 | 48.99396 | 2.58554 | 335 ft | 90 kts | 84° |
| 2026-05-01 12:44 | 48.99441 | 2.59182 | 330 ft | 38 kts | 72° |
| 2026-05-01 12:44 | 48.99536 | 2.59482 | 328 ft | 24 kts | 65° |
| 2026-05-01 12:44 | 48.99691 | 2.59686 | 329 ft | 13 kts | 357° |
| 2026-05-01 12:45 | 48.99859 | 2.59666 | 330 ft | 15 kts | 355° |
| 2026-05-01 12:45 | 48.99977 | 2.59651 | 329 ft | 18 kts | 355° |
| 2026-05-01 12:45 | 49.00104 | 2.59635 | 331 ft | 18 kts | 355° |
| 2026-05-01 12:46 | 49.00225 | 2.59620 | 332 ft | 17 kts | 355° |
| 2026-05-01 12:46 | 49.00343 | 2.59606 | 333 ft | 17 kts | 355° |
| 2026-05-01 12:46 | 49.00459 | 2.59592 | 335 ft | 18 kts | 355° |
| 2026-05-01 12:46 | 49.00589 | 2.59575 | 335 ft | 18 kts | 355° |
| 2026-05-01 12:47 | 49.00715 | 2.59560 | 340 ft | 19 kts | 356° |
| 2026-05-01 12:47 | 49.00853 | 2.59544 | 343 ft | 19 kts | 356° |
| 2026-05-01 12:47 | 49.00966 | 2.59524 | 351 ft | 13 kts | 346° |
| 2026-05-01 12:47 | 49.01000 | 2.59404 | 348 ft | 15 kts | 266° |
| 2026-05-01 12:48 | 49.00991 | 2.59225 | 349 ft | 18 kts | 264° |
| 2026-05-01 12:48 | 49.00973 | 2.59043 | 353 ft | 16 kts | 254° |
| 2026-05-01 12:48 | 49.00950 | 2.58887 | 355 ft | 14 kts | 265° |
| 2026-05-01 12:48 | 49.00941 | 2.58720 | 353 ft | 18 kts | 265° |
| 2026-05-01 12:49 | 49.00929 | 2.58517 | 355 ft | 19 kts | 265° |
| 2026-05-01 12:49 | 49.00920 | 2.58343 | 359 ft | 15 kts | 264° |
| 2026-05-01 12:49 | 49.00912 | 2.58196 | 357 ft | 14 kts | 266° |
| 2026-05-01 12:49 | 49.00905 | 2.58020 | 359 ft | 19 kts | 267° |
| 2026-05-01 12:50 | 49.00893 | 2.57815 | 366 ft | 19 kts | 265° |
| 2026-05-01 12:50 | 49.00881 | 2.57631 | 363 ft | 16 kts | 265° |
| 2026-05-01 12:50 | 49.00874 | 2.57465 | 364 ft | 18 kts | 265° |
| 2026-05-01 12:50 | 49.00862 | 2.57269 | 363 ft | 18 kts | 264° |
| 2026-05-01 12:51 | 49.00851 | 2.57057 | 368 ft | 21 kts | 266° |
| 2026-05-01 12:51 | 49.00800 | 2.56923 | 363 ft | 15 kts | 187° |
| 2026-05-01 12:51 | 49.00643 | 2.56843 | 362 ft | 12 kts | 241° |
| 2026-05-01 12:52 | 49.00622 | 2.56729 | 364 ft | 11 kts | 264° |
| 2026-05-01 12:52 | 49.00608 | 2.56453 | 358 ft | 13 kts | 259° |
| 2026-05-01 12:52 | 49.00549 | 2.56381 | 361 ft | 9 kts | 225° |
| 2026-05-01 12:53 | 49.00536 | 2.56352 | 360 ft | 0 kts | 234° |